Wetterdaten: Woche 04.09.17 - 10.09.17 (KW36)
Datum Zeit Temp. Aussen Temp. o. S. +5cm Feuchte Auss BlattFeu 1 Luftdruck Regen Sonnenschein Regendauer Solar Windben Empfang
04.09.2017 00:00 13,5 C 11,7 C 10,0 C 84 % 1 lf 1013,8 hPa 0,0 l/m 0,00 h 0,00 h 3 W/m 0,5 km/h (0 Bft) 95,44 %
04.09.2017 01:00 12,4 C 11,2 C 9,5 C 87 % 1 lf 1013,6 hPa 0,0 l/m 0,00 h 0,00 h 0 W/m 1,8 km/h (1 Bft) 97,67 %
04.09.2017 02:00 11,7 C 11,2 C 9,4 C 89 % 1 lf 1013,4 hPa 0,0 l/m 0,00 h 0,00 h 1 W/m 4,5 km/h (1 Bft) 96,61 %
04.09.2017 03:00 11,3 C 10,9 C 9,4 C 91 % 1 lf 1013,4 hPa 0,0 l/m 0,00 h 0,00 h 0 W/m 7,0 km/h (2 Bft) 95,80 %
04.09.2017 04:00 11,1 C 10,6 C 9,4 C 93 % 1 lf 1013,4 hPa 0,0 l/m 0,00 h 0,00 h 0 W/m 7,8 km/h (2 Bft) 97,07 %
04.09.2017 05:00 10,8 C 10,6 C 9,4 C 93 % 1 lf 1013,3 hPa 0,0 l/m 0,00 h 0,00 h 0 W/m 5,8 km/h (2 Bft) 95,24 %
04.09.2017 06:00 10,6 C 10,4 C 9,2 C 93 % 1 lf 1013,6 hPa 0,0 l/m 0,00 h 0,00 h 7 W/m 7,5 km/h (2 Bft) 98,62 %
04.09.2017 07:00 10,7 C 10,8 C 9,5 C 94 % 1 lf 1013,6 hPa 0,0 l/m 0,20 h 0,00 h 34 W/m 8,3 km/h (2 Bft) 97,41 %
04.09.2017 08:00 11,3 C 13,3 C 11,4 C 94 % 1 lf 1014,0 hPa 0,0 l/m 0,47 h 0,00 h 151 W/m 10,3 km/h (2 Bft) 94,08 %
04.09.2017 09:00 13,8 C 19,3 C 14,6 C 91 % 0 lf 1014,5 hPa 0,0 l/m 0,97 h 0,00 h 334 W/m 11,7 km/h (2 Bft) 96,90 %
04.09.2017 10:00 17,9 C 25,4 C 22,0 C 76 % 0 lf 1014,7 hPa 0,0 l/m 1,00 h 0,00 h 506 W/m 11,2 km/h (2 Bft) 97,79 %
04.09.2017 11:00 21,1 C 28,5 C 25,9 C 65 % 0 lf 1014,6 hPa 0,0 l/m 1,00 h 0,00 h 655 W/m 13,5 km/h (3 Bft) 94,87 %
04.09.2017 12:00 22,6 C 28,2 C 27,8 C 58 % 0 lf 1014,7 hPa 0,0 l/m 0,77 h 0,00 h 573 W/m 13,3 km/h (3 Bft) 97,19 %
04.09.2017 13:00 22,9 C 28,8 C 23,8 C 55 % 0 lf 1014,7 hPa 0,0 l/m 0,93 h 0,00 h 658 W/m 15,6 km/h (3 Bft) 96,93 %
04.09.2017 14:00 23,0 C 26,4 C 23,5 C 57 % 0 lf 1014,8 hPa 0,0 l/m 0,67 h 0,00 h 436 W/m 13,0 km/h (3 Bft) 96,18 %
04.09.2017 15:00 22,4 C 23,5 C 23,8 C 59 % 0 lf 1015,0 hPa 0,0 l/m 0,27 h 0,00 h 289 W/m 12,2 km/h (2 Bft) 96,39 %
04.09.2017 16:00 22,1 C 22,7 C 22,6 C 58 % 0 lf 1015,0 hPa 0,0 l/m 0,17 h 0,00 h 187 W/m 12,9 km/h (3 Bft) 96,80 %
04.09.2017 17:00 21,0 C 21,2 C 20,7 C 63 % 0 lf 1015,1 hPa 0,0 l/m 0,27 h 0,00 h 153 W/m 17,9 km/h (3 Bft) 97,15 %
04.09.2017 18:00 20,4 C 20,4 C 20,2 C 66 % 0 lf 1015,5 hPa 0,0 l/m 0,00 h 0,00 h 104 W/m 16,9 km/h (3 Bft) 93,67 %
04.09.2017 19:00 19,4 C 18,7 C 18,0 C 71 % 0 lf 1015,7 hPa 0,0 l/m 0,00 h 0,00 h 41 W/m 18,2 km/h (3 Bft) 99,29 %
04.09.2017 20:00 17,9 C 17,0 C 16,0 C 78 % 0 lf 1016,2 hPa 0,0 l/m 0,00 h 0,00 h 6 W/m 13,9 km/h (3 Bft) 96,15 %
04.09.2017 21:00 17,1 C 16,2 C 15,0 C 82 % 0 lf 1016,5 hPa 0,0 l/m 0,00 h 0,00 h 5 W/m 7,2 km/h (2 Bft) 94,52 %
04.09.2017 22:00 17,0 C 16,7 C 15,9 C 84 % 0 lf 1016,7 hPa 0,0 l/m 0,00 h 0,00 h 5 W/m 12,2 km/h (2 Bft) 97,01 %
04.09.2017 23:00 17,0 C 16,7 C 15,6 C 87 % 0 lf 1017,1 hPa 0,0 l/m 0,00 h 0,00 h 5 W/m 9,0 km/h (2 Bft) 98,18 %
05.09.2017 00:00 16,8 C 16,5 C 15,6 C 88 % 0 lf 1017,1 hPa 0,0 l/m 0,00 h 0,00 h 0 W/m 8,8 km/h (2 Bft) 93,09 %
05.09.2017 01:00 16,7 C 16,3 C 15,6 C 89 % 0 lf 1017,0 hPa 0,0 l/m 0,00 h 0,00 h 0 W/m 6,3 km/h (2 Bft) 98,54 %
05.09.2017 02:00 16,6 C 16,2 C 15,6 C 89 % 0 lf 1017,0 hPa 0,0 l/m 0,00 h 0,00 h 0 W/m 5,5 km/h (1 Bft) 96,62 %
05.09.2017 03:00 16,6 C 16,1 C 15,6 C 89 % 0 lf 1016,9 hPa 0,0 l/m 0,00 h 0,00 h 0 W/m 7,3 km/h (2 Bft) 95,90 %
05.09.2017 04:00 16,6 C 16,3 C 15,6 C 90 % 0 lf 1016,5 hPa 0,0 l/m 0,00 h 0,00 h 0 W/m 9,6 km/h (2 Bft) 96,09 %
05.09.2017 05:00 16,6 C 16,1 C 15,4 C 89 % 0 lf 1016,5 hPa 0,0 l/m 0,00 h 0,00 h 0 W/m 12,0 km/h (2 Bft) 97,06 %
05.09.2017 06:00 16,3 C 16,1 C 15,0 C 91 % 0 lf 1016,5 hPa 0,0 l/m 0,00 h 0,00 h 0 W/m 10,1 km/h (2 Bft) 95,95 %
05.09.2017 07:00 16,3 C 16,2 C 15,2 C 92 % 0 lf 1016,5 hPa 0,0 l/m 0,00 h 0,00 h 20 W/m 9,4 km/h (2 Bft) 97,08 %
05.09.2017 08:00 16,7 C 17,6 C 16,9 C 92 % 0 lf 1016,5 hPa 0,0 l/m 0,27 h 0,00 h 110 W/m 10,0 km/h (2 Bft) 95,52 %
05.09.2017 09:00 17,9 C 19,4 C 18,7 C 90 % 0 lf 1016,5 hPa 0,0 l/m 0,20 h 0,00 h 156 W/m 10,9 km/h (2 Bft) 96,80 %
05.09.2017 10:00 20,2 C 26,2 C 23,7 C 84 % 0 lf 1016,2 hPa 0,0 l/m 0,97 h 0,00 h 452 W/m 12,2 km/h (2 Bft) 96,57 %
05.09.2017 11:00 23,2 C 28,2 C 26,3 C 76 % 0 lf 1015,9 hPa 0,0 l/m 0,47 h 0,00 h 360 W/m 14,9 km/h (3 Bft) 97,15 %
05.09.2017 12:00 24,8 C 29,2 C 28,6 C 70 % 0 lf 1015,5 hPa 0,0 l/m 0,50 h 0,00 h 487 W/m 17,3 km/h (3 Bft) 96,03 %
05.09.2017 13:00 24,6 C 25,3 C 25,2 C 68 % 0 lf 1015,4 hPa 0,0 l/m 0,03 h 0,00 h 217 W/m 18,1 km/h (3 Bft) 96,31 %
05.09.2017 14:00 24,1 C 24,2 C 23,7 C 70 % 0 lf 1015,4 hPa 0,0 l/m 0,00 h 0,00 h 110 W/m 11,5 km/h (2 Bft) 97,73 %
05.09.2017 15:00 24,2 C 26,3 C 25,7 C 72 % 0 lf 1015,0 hPa 0,0 l/m 0,30 h 0,00 h 264 W/m 8,9 km/h (2 Bft) 96,51 %
05.09.2017 16:00 25,5 C 27,3 C 25,9 C 66 % 0 lf 1014,3 hPa 0,0 l/m 0,43 h 0,00 h 304 W/m 12,5 km/h (3 Bft) 96,59 %
05.09.2017 17:00 24,8 C 24,4 C 23,5 C 65 % 0 lf 1013,9 hPa 0,0 l/m 0,00 h 0,00 h 65 W/m 15,3 km/h (3 Bft) 96,28 %
05.09.2017 18:00 23,8 C 21,1 C 19,5 C 74 % 12 lf 1013,9 hPa 0,8 l/m 0,00 h 0,57 h 15 W/m 10,0 km/h (2 Bft) 96,37 %
05.09.2017 19:00 22,0 C 19,2 C 18,3 C 85 % 15 lf 1013,8 hPa 0,2 l/m 0,00 h 0,13 h 17 W/m 1,1 km/h (1 Bft) 97,04 %
05.09.2017 20:00 20,9 C 19,0 C 18,3 C 91 % 15 lf 1013,9 hPa 0,2 l/m 0,00 h 0,37 h 6 W/m 4,1 km/h (1 Bft) 97,80 %
05.09.2017 21:00 20,1 C 18,9 C 17,9 C 93 % 15 lf 1014,1 hPa 0,6 l/m 0,00 h 0,27 h 0 W/m 7,7 km/h (2 Bft) 94,17 %
05.09.2017 22:00 19,6 C 18,3 C 17,5 C 94 % 15 lf 1014,3 hPa 0,0 l/m 0,00 h 0,17 h 0 W/m 11,7 km/h (2 Bft) 97,03 %
05.09.2017 23:00 19,2 C 18,8 C 16,7 C 89 % 2 lf 1014,2 hPa 0,0 l/m 0,00 h 0,00 h 0 W/m 14,0 km/h (3 Bft) 98,42 %
06.09.2017 00:00 18,9 C 18,0 C 15,8 C 87 % 1 lf 1014,0 hPa 0,0 l/m 0,00 h 0,00 h 0 W/m 7,3 km/h (2 Bft) 94,09 %
06.09.2017 01:00 18,2 C 17,1 C 15,2 C 89 % 1 lf 1013,7 hPa 0,0 l/m 0,00 h 0,00 h 0 W/m 5,5 km/h (1 Bft) 97,30 %
06.09.2017 02:00 17,7 C 17,2 C 15,3 C 91 % 1 lf 1013,3 hPa 0,0 l/m 0,00 h 0,00 h 0 W/m 7,2 km/h (2 Bft) 98,08 %
06.09.2017 03:00 17,6 C 17,2 C 15,1 C 91 % 1 lf 1012,7 hPa 0,0 l/m 0,00 h 0,00 h 0 W/m 9,8 km/h (2 Bft) 95,66 %
06.09.2017 04:00 17,6 C 17,4 C 15,7 C 92 % 1 lf 1012,4 hPa 0,0 l/m 0,00 h 0,00 h 0 W/m 10,6 km/h (2 Bft) 95,38 %
06.09.2017 05:00 17,8 C 17,0 C 15,5 C 92 % 9 lf 1012,0 hPa 0,2 l/m 0,00 h 0,20 h 0 W/m 15,9 km/h (3 Bft) 97,70 %
06.09.2017 06:00 17,3 C 16,3 C 15,1 C 94 % 15 lf 1011,9 hPa 0,0 l/m 0,00 h 0,37 h 0 W/m 21,0 km/h (4 Bft) 96,23 %
06.09.2017 07:00 17,0 C 16,6 C 15,3 C 95 % 9 lf 1012,1 hPa 0,0 l/m 0,00 h 0,33 h 20 W/m 19,4 km/h (3 Bft) 97,51 %
06.09.2017 08:00 17,0 C 16,2 C 15,6 C 96 % 15 lf 1012,6 hPa 0,6 l/m 0,00 h 0,27 h 60 W/m 24,6 km/h (4 Bft) 95,16 %
06.09.2017 09:00 16,4 C 16,0 C 15,3 C 94 % 8 lf 1013,7 hPa 0,0 l/m 0,00 h 0,07 h 131 W/m 32,4 km/h (5 Bft) 96,44 %
06.09.2017 10:00 16,7 C 19,3 C 16,2 C 86 % 0 lf 1014,8 hPa 0,0 l/m 0,53 h 0,00 h 330 W/m 32,0 km/h (5 Bft) 97,43 %
06.09.2017 11:00 18,6 C 24,6 C 21,2 C 69 % 0 lf 1015,3 hPa 0,0 l/m 0,77 h 0,00 h 543 W/m 31,4 km/h (5 Bft) 95,45 %
06.09.2017 12:00 18,6 C 20,9 C 19,5 C 67 % 0 lf 1015,4 hPa 0,0 l/m 0,23 h 0,00 h 293 W/m 30,1 km/h (5 Bft) 96,34 %
06.09.2017 13:00 19,4 C 25,3 C 19,8 C 62 % 0 lf 1015,5 hPa 0,0 l/m 0,90 h 0,00 h 637 W/m 31,3 km/h (5 Bft) 97,79 %
06.09.2017 14:00 18,9 C 19,9 C 18,8 C 61 % 0 lf 1015,6 hPa 0,0 l/m 0,17 h 0,00 h 209 W/m 29,1 km/h (5 Bft) 95,72 %
06.09.2017 15:00 18,2 C 18,9 C 18,4 C 62 % 0 lf 1015,8 hPa 0,0 l/m 0,00 h 0,00 h 199 W/m 27,4 km/h (4 Bft) 97,43 %
06.09.2017 16:00 17,6 C 18,4 C 18,0 C 66 % 0 lf 1015,8 hPa 0,0 l/m 0,00 h 0,00 h 191 W/m 27,3 km/h (4 Bft) 96,23 %
06.09.2017 17:00 17,8 C 18,3 C 17,1 C 66 % 0 lf 1015,8 hPa 0,0 l/m 0,17 h 0,13 h 136 W/m 23,4 km/h (4 Bft) 96,00 %
06.09.2017 18:00 16,9 C 16,6 C 15,5 C 70 % 0 lf 1016,0 hPa 0,0 l/m 0,03 h 0,00 h 65 W/m 19,9 km/h (4 Bft) 97,61 %
06.09.2017 19:00 16,2 C 15,8 C 14,7 C 70 % 0 lf 1016,2 hPa 0,0 l/m 0,00 h 0,00 h 29 W/m 20,1 km/h (4 Bft) 94,30 %
06.09.2017 20:00 15,5 C 15,0 C 13,9 C 70 % 0 lf 1016,6 hPa 0,0 l/m 0,00 h 0,00 h 5 W/m 16,2 km/h (3 Bft) 98,58 %
06.09.2017 21:00 15,2 C 14,6 C 13,7 C 73 % 1 lf 1017,1 hPa 0,0 l/m 0,00 h 0,07 h 0 W/m 14,8 km/h (3 Bft) 95,31 %
06.09.2017 22:00 14,6 C 13,6 C 12,4 C 80 % 0 lf 1017,1 hPa 0,0 l/m 0,00 h 0,07 h 0 W/m 9,9 km/h (2 Bft) 95,62 %
06.09.2017 23:00 13,9 C 13,3 C 12,6 C 83 % 0 lf 1016,8 hPa 0,0 l/m 0,00 h 0,00 h 0 W/m 9,7 km/h (2 Bft) 98,22 %
07.09.2017 00:00 13,8 C 13,7 C 12,8 C 84 % 0 lf 1016,7 hPa 0,0 l/m 0,00 h 0,00 h 0 W/m 10,6 km/h (2 Bft) 96,67 %
07.09.2017 01:00 14,0 C 13,9 C 12,8 C 84 % 0 lf 1016,7 hPa 0,0 l/m 0,00 h 0,00 h 0 W/m 10,8 km/h (2 Bft) 94,02 %
07.09.2017 02:00 14,2 C 13,9 C 12,8 C 84 % 0 lf 1016,2 hPa 0,0 l/m 0,00 h 0,00 h 0 W/m 10,6 km/h (2 Bft) 98,65 %
07.09.2017 03:00 13,9 C 13,3 C 12,8 C 85 % 0 lf 1015,7 hPa 0,0 l/m 0,00 h 0,00 h 0 W/m 12,2 km/h (2 Bft) 96,30 %
07.09.2017 04:00 13,8 C 13,5 C 12,8 C 85 % 0 lf 1015,6 hPa 0,0 l/m 0,00 h 0,00 h 0 W/m 13,2 km/h (3 Bft) 95,69 %
07.09.2017 05:00 13,8 C 13,3 C 12,4 C 86 % 0 lf 1015,4 hPa 0,0 l/m 0,00 h 0,00 h 0 W/m 13,5 km/h (3 Bft) 97,06 %
07.09.2017 06:00 13,5 C 12,9 C 11,8 C 86 % 0 lf 1015,4 hPa 0,0 l/m 0,00 h 0,00 h 7 W/m 12,0 km/h (2 Bft) 95,51 %
07.09.2017 07:00 13,2 C 13,1 C 12,1 C 88 % 0 lf 1015,4 hPa 0,0 l/m 0,00 h 0,00 h 24 W/m 12,4 km/h (3 Bft) 97,58 %
07.09.2017 08:00 13,7 C 14,4 C 13,4 C 88 % 0 lf 1015,6 hPa 0,0 l/m 0,00 h 0,00 h 84 W/m 14,1 km/h (3 Bft) 96,08 %
07.09.2017 09:00 14,4 C 15,2 C 14,5 C 87 % 0 lf 1015,6 hPa 0,0 l/m 0,00 h 0,00 h 103 W/m 13,3 km/h (3 Bft) 94,87 %
07.09.2017 10:00 15,5 C 17,3 C 16,6 C 85 % 0 lf 1015,6 hPa 0,0 l/m 0,23 h 0,00 h 217 W/m 15,3 km/h (3 Bft) 97,79 %
07.09.2017 11:00 16,8 C 19,9 C 19,0 C 80 % 0 lf 1015,4 hPa 0,0 l/m 1,00 h 0,00 h 356 W/m 17,9 km/h (3 Bft) 98,01 %
07.09.2017 12:00 18,3 C 23,6 C 21,8 C 75 % 0 lf 1014,9 hPa 0,0 l/m 1,00 h 0,00 h 521 W/m 20,6 km/h (4 Bft) 94,75 %
07.09.2017 13:00 18,5 C 19,9 C 19,9 C 72 % 0 lf 1014,6 hPa 0,0 l/m 0,20 h 0,00 h 249 W/m 15,8 km/h (3 Bft) 96,51 %
07.09.2017 14:00 18,6 C 21,5 C 20,3 C 72 % 0 lf 1014,2 hPa 0,0 l/m 0,28 h 0,00 h 326 W/m 11,3 km/h (2 Bft) 97,27 %
07.09.2017 15:00 20,0 C 23,7 C 21,7 C 63 % 0 lf 1013,6 hPa 0,0 l/m 0,80 h 0,00 h 423 W/m 19,3 km/h (3 Bft) 95,58 %
07.09.2017 16:00 19,8 C 20,6 C 19,5 C 62 % 0 lf 1013,4 hPa 0,0 l/m 0,17 h 0,00 h 207 W/m 18,3 km/h (3 Bft) 97,57 %
07.09.2017 17:00 18,5 C 18,3 C 17,9 C 68 % 0 lf 1013,2 hPa 0,0 l/m 0,13 h 0,00 h 95 W/m 20,6 km/h (4 Bft) 95,74 %
07.09.2017 18:00 17,5 C 17,3 C 16,8 C 70 % 0 lf 1012,9 hPa 0,0 l/m 0,00 h 0,00 h 87 W/m 23,2 km/h (4 Bft) 97,49 %
07.09.2017 19:00 16,8 C 16,3 C 15,5 C 74 % 0 lf 1012,7 hPa 0,0 l/m 0,40 h 0,00 h 41 W/m 17,8 km/h (3 Bft) 95,73 %
07.09.2017 20:00 16,1 C 15,6 C 14,5 C 78 % 0 lf 1012,6 hPa 0,0 l/m 0,00 h 0,00 h 5 W/m 13,7 km/h (3 Bft) 98,15 %
07.09.2017 21:00 15,6 C 15,0 C 13,9 C 80 % 0 lf 1012,4 hPa 0,0 l/m 0,00 h 0,00 h 4 W/m 12,7 km/h (3 Bft) 96,38 %
07.09.2017 22:00 15,2 C 14,4 C 13,3 C 84 % 0 lf 1011,8 hPa 0,0 l/m 0,00 h 0,00 h 4 W/m 13,5 km/h (3 Bft) 95,44 %
07.09.2017 23:00 15,0 C 14,8 C 13,7 C 85 % 0 lf 1011,1 hPa 0,0 l/m 0,00 h 0,00 h 5 W/m 13,0 km/h (3 Bft) 97,11 %
08.09.2017 00:00 15,2 C 15,0 C 13,8 C 82 % 0 lf 1010,4 hPa 0,0 l/m 0,00 h 0,00 h 5 W/m 16,4 km/h (3 Bft) 98,55 %
08.09.2017 01:00 15,5 C 15,6 C 14,3 C 80 % 0 lf 1009,6 hPa 0,0 l/m 0,00 h 0,00 h 5 W/m 15,9 km/h (3 Bft) 93,73 %
08.09.2017 02:00 15,7 C 15,6 C 14,2 C 80 % 0 lf 1008,9 hPa 0,0 l/m 0,00 h 0,00 h 5 W/m 18,0 km/h (3 Bft) 97,45 %
08.09.2017 03:00 15,8 C 15,6 C 14,4 C 80 % 0 lf 1008,2 hPa 0,0 l/m 0,00 h 0,00 h 0 W/m 21,5 km/h (4 Bft) 97,60 %
08.09.2017 04:00 15,6 C 15,4 C 14,0 C 81 % 0 lf 1007,3 hPa 0,0 l/m 0,00 h 0,00 h 3 W/m 20,9 km/h (4 Bft) 91,89 %
08.09.2017 05:00 15,4 C 15,0 C 13,9 C 82 % 0 lf 1006,4 hPa 0,0 l/m 0,00 h 0,00 h 5 W/m 17,3 km/h (3 Bft) 95,77 %
08.09.2017 06:00 15,4 C 15,0 C 13,9 C 82 % 0 lf 1005,5 hPa 0,0 l/m 0,00 h 0,00 h 4 W/m 21,0 km/h (4 Bft) 98,23 %
08.09.2017 07:00 15,6 C 15,6 C 14,4 C 81 % 0 lf 1005,1 hPa 0,0 l/m 0,00 h 0,00 h 13 W/m 24,9 km/h (4 Bft) 94,47 %
08.09.2017 08:00 15,8 C 15,7 C 14,9 C 80 % 0 lf 1004,6 hPa 0,0 l/m 0,00 h 0,00 h 42 W/m 28,7 km/h (4 Bft) 96,93 %
08.09.2017 09:00 16,1 C 16,0 C 15,2 C 79 % 1 lf 1003,9 hPa 0,0 l/m 0,00 h 0,30 h 69 W/m 28,8 km/h (5 Bft) 96,01 %
08.09.2017 10:00 16,1 C 16,0 C 14,9 C 81 % 1 lf 1003,7 hPa 0,0 l/m 0,00 h 0,37 h 93 W/m 27,1 km/h (4 Bft) 96,16 %
08.09.2017 11:00 16,8 C 17,2 C 16,4 C 79 % 0 lf 1003,4 hPa 0,0 l/m 0,00 h 0,03 h 129 W/m 35,4 km/h (5 Bft) 97,52 %
08.09.2017 12:00 16,3 C 15,5 C 14,9 C 85 % 9 lf 1003,1 hPa 0,2 l/m 0,00 h 0,60 h 118 W/m 30,3 km/h (5 Bft) 94,79 %
08.09.2017 13:00 15,5 C 14,4 C 13,9 C 92 % 15 lf 1002,9 hPa 0,6 l/m 0,00 h 1,00 h 106 W/m 24,0 km/h (4 Bft) 95,60 %
08.09.2017 14:00 15,5 C 14,5 C 14,0 C 94 % 15 lf 1002,5 hPa 0,4 l/m 0,00 h 1,00 h 80 W/m 23,0 km/h (4 Bft) 98,78 %
08.09.2017 15:00 15,8 C 14,9 C 14,2 C 93 % 11 lf 1001,9 hPa 0,0 l/m 0,00 h 0,80 h 89 W/m 25,7 km/h (4 Bft) 95,02 %
08.09.2017 16:00 15,8 C 14,7 C 14,0 C 94 % 14 lf 1001,5 hPa 0,6 l/m 0,00 h 0,80 h 65 W/m 20,7 km/h (4 Bft) 95,37 %
08.09.2017 17:00 15,5 C 14,4 C 13,9 C 95 % 15 lf 1000,9 hPa 1,4 l/m 0,00 h 1,00 h 59 W/m 23,1 km/h (4 Bft) 98,15 %
08.09.2017 18:00 15,1 C 14,4 C 13,6 C 96 % 15 lf 1000,4 hPa 0,6 l/m 0,00 h 0,93 h 23 W/m 18,4 km/h (3 Bft) 95,40 %
08.09.2017 19:00 15,1 C 14,4 C 13,6 C 97 % 15 lf 999,9 hPa 1,4 l/m 0,00 h 1,00 h 10 W/m 17,1 km/h (3 Bft) 95,50 %
08.09.2017 20:00 14,9 C 14,4 C 13,3 C 97 % 15 lf 999,2 hPa 0,4 l/m 0,00 h 0,30 h 5 W/m 17,0 km/h (3 Bft) 97,71 %
08.09.2017 21:00 14,9 C 14,3 C 13,3 C 98 % 15 lf 998,8 hPa 3,6 l/m 0,00 h 1,00 h 4 W/m 19,3 km/h (3 Bft) 95,21 %
08.09.2017 22:00 14,9 C 14,3 C 13,3 C 98 % 15 lf 998,1 hPa 1,4 l/m 0,00 h 1,00 h 4 W/m 13,5 km/h (3 Bft) 97,21 %
08.09.2017 23:00 14,9 C 14,3 C 13,3 C 98 % 15 lf 997,7 hPa 0,2 l/m 0,00 h 0,97 h 5 W/m 13,6 km/h (3 Bft) 96,09 %
09.09.2017 00:00 14,6 C 13,9 C 13,1 C 98 % 15 lf 997,4 hPa 0,2 l/m 0,00 h 0,47 h 5 W/m 12,9 km/h (3 Bft) 95,13 %
09.09.2017 01:00 14,3 C 13,9 C 12,8 C 98 % 15 lf 996,8 hPa 0,2 l/m 0,00 h 0,57 h 5 W/m 5,3 km/h (1 Bft) 98,10 %
09.09.2017 02:00 14,1 C 13,5 C 12,6 C 98 % 15 lf 996,4 hPa 4,2 l/m 0,00 h 1,00 h 5 W/m 14,0 km/h (3 Bft) 96,48 %
09.09.2017 03:00 13,0 C 12,3 C 11,7 C 97 % 15 lf 995,8 hPa 1,2 l/m 0,00 h 1,00 h 0 W/m 8,4 km/h (2 Bft) 95,21 %
09.09.2017 04:00 13,1 C 12,8 C 11,8 C 98 % 15 lf 995,1 hPa 1,8 l/m 0,00 h 1,00 h 0 W/m 6,5 km/h (2 Bft) 98,15 %
09.09.2017 05:00 13,2 C 12,8 C 12,2 C 98 % 15 lf 994,5 hPa 1,4 l/m 0,00 h 1,00 h 0 W/m 6,9 km/h (2 Bft) 98,16 %
09.09.2017 06:00 13,2 C 12,8 C 12,0 C 98 % 15 lf 994,0 hPa 0,6 l/m 0,00 h 1,00 h 10 W/m 10,8 km/h (2 Bft) 94,49 %
09.09.2017 07:00 13,0 C 12,2 C 11,7 C 98 % 15 lf 994,0 hPa 0,8 l/m 0,00 h 1,00 h 16 W/m 12,3 km/h (3 Bft) 97,72 %
09.09.2017 08:00 12,9 C 12,6 C 11,8 C 98 % 15 lf 993,9 hPa 0,2 l/m 0,00 h 0,20 h 33 W/m 11,5 km/h (2 Bft) 96,08 %
09.09.2017 09:00 13,1 C 13,0 C 12,4 C 98 % 15 lf 994,2 hPa 0,8 l/m 0,00 h 0,77 h 91 W/m 16,7 km/h (3 Bft) 96,79 %
09.09.2017 10:00 13,7 C 14,0 C 13,3 C 99 % 15 lf 995,0 hPa 0,6 l/m 0,17 h 0,60 h 188 W/m 22,1 km/h (4 Bft) 95,38 %
09.09.2017 11:00 15,1 C 19,6 C 17,1 C 97 % 8 lf 995,6 hPa 0,0 l/m 0,93 h 0,00 h 489 W/m 27,1 km/h (4 Bft) 97,51 %
09.09.2017 12:00 16,2 C 17,2 C 15,7 C 89 % 7 lf 996,1 hPa 0,6 l/m 0,33 h 0,37 h 295 W/m 21,8 km/h (4 Bft) 96,33 %
09.09.2017 13:00 16,8 C 21,1 C 16,3 C 88 % 6 lf 996,3 hPa 0,0 l/m 0,77 h 0,17 h 483 W/m 21,7 km/h (4 Bft) 96,17 %
09.09.2017 14:00 16,7 C 19,0 C 16,0 C 86 % 0 lf 996,6 hPa 0,0 l/m 0,30 h 0,03 h 297 W/m 19,0 km/h (3 Bft) 96,89 %
09.09.2017 15:00 16,2 C 20,0 C 14,2 C 85 % 8 lf 997,2 hPa 0,2 l/m 0,50 h 0,33 h 353 W/m 7,7 km/h (2 Bft) 96,93 %
09.09.2017 16:00 17,6 C 21,5 C 16,3 C 81 % 0 lf 997,1 hPa 0,0 l/m 0,70 h 0,00 h 349 W/m 10,6 km/h (2 Bft) 94,78 %
09.09.2017 17:00 16,2 C 14,2 C 12,9 C 78 % 7 lf 998,0 hPa 0,2 l/m 0,00 h 0,47 h 23 W/m 12,3 km/h (3 Bft) 97,49 %
09.09.2017 18:00 13,5 C 13,0 C 11,7 C 87 % 14 lf 998,3 hPa 0,0 l/m 0,00 h 0,00 h 64 W/m 3,6 km/h (1 Bft) 97,28 %
09.09.2017 19:00 13,4 C 13,2 C 11,9 C 91 % 2 lf 998,7 hPa 0,0 l/m 0,03 h 0,00 h 24 W/m 4,9 km/h (1 Bft) 95,02 %
09.09.2017 20:00 13,0 C 12,1 C 10,7 C 91 % 0 lf 999,1 hPa 0,0 l/m 0,00 h 0,00 h 5 W/m 5,0 km/h (1 Bft) 96,00 %
09.09.2017 21:00 12,4 C 11,3 C 10,0 C 92 % 2 lf 999,7 hPa 0,0 l/m 0,00 h 0,00 h 4 W/m 5,9 km/h (2 Bft) 96,30 %
09.09.2017 22:00 11,9 C 11,2 C 9,9 C 94 % 5 lf 1000,2 hPa 0,0 l/m 0,00 h 0,00 h 5 W/m 6,5 km/h (2 Bft) 96,23 %
09.09.2017 23:00 11,7 C 11,4 C 10,2 C 95 % 9 lf 1000,6 hPa 0,0 l/m 0,00 h 0,00 h 5 W/m 7,3 km/h (2 Bft) 97,37 %
10.09.2017 00:00 11,9 C 12,1 C 10,6 C 96 % 1 lf 1000,9 hPa 0,0 l/m 0,00 h 0,00 h 5 W/m 6,3 km/h (2 Bft) 94,46 %
10.09.2017 01:00 12,1 C 12,0 C 10,6 C 96 % 0 lf 1001,0 hPa 0,0 l/m 0,00 h 0,00 h 5 W/m 6,0 km/h (2 Bft) 97,08 %
10.09.2017 02:00 11,9 C 11,3 C 9,8 C 96 % 1 lf 1001,1 hPa 0,0 l/m 0,00 h 0,00 h 5 W/m 4,5 km/h (1 Bft) 97,29 %
10.09.2017 03:00 11,2 C 10,1 C 8,9 C 95 % 8 lf 1001,6 hPa 0,0 l/m 0,00 h 0,00 h 5 W/m 5,2 km/h (1 Bft) 96,72 %
10.09.2017 04:00 10,8 C 10,0 C 8,9 C 95 % 14 lf 1002,2 hPa 0,0 l/m 0,00 h 0,00 h 0 W/m 7,7 km/h (2 Bft) 94,66 %
10.09.2017 05:00 10,6 C 10,0 C 8,9 C 96 % 15 lf 1002,3 hPa 0,0 l/m 0,00 h 0,00 h 0 W/m 9,9 km/h (2 Bft) 97,65 %
10.09.2017 06:00 10,3 C 9,9 C 8,4 C 96 % 15 lf 1002,7 hPa 0,0 l/m 0,00 h 0,00 h 0 W/m 9,7 km/h (2 Bft) 97,05 %
10.09.2017 07:00 10,2 C 9,9 C 8,6 C 97 % 15 lf 1003,2 hPa 0,0 l/m 0,50 h 0,00 h 36 W/m 9,1 km/h (2 Bft) 95,73 %
10.09.2017 08:00 10,7 C 13,5 C 9,4 C 97 % 12 lf 1003,7 hPa 0,2 l/m 1,00 h 0,00 h 175 W/m 9,5 km/h (2 Bft) 94,96 %
10.09.2017 09:00 13,3 C 22,3 C 12,2 C 95 % 0 lf 1003,7 hPa 0,0 l/m 1,00 h 0,00 h 340 W/m 11,9 km/h (2 Bft) 98,01 %
10.09.2017 10:00 16,1 C 22,8 C 17,1 C 81 % 0 lf 1003,8 hPa 0,0 l/m 0,93 h 0,00 h 449 W/m 17,3 km/h (3 Bft) 95,99 %
10.09.2017 11:00 16,6 C 21,9 C 19,4 C 76 % 0 lf 1003,7 hPa 0,0 l/m 0,70 h 0,00 h 519 W/m 22,6 km/h (4 Bft) 96,36 %
10.09.2017 12:00 17,6 C 23,0 C 20,3 C 73 % 0 lf 1003,7 hPa 0,0 l/m 0,60 h 0,00 h 494 W/m 26,5 km/h (4 Bft) 96,43 %
10.09.2017 13:00 17,8 C 22,1 C 18,0 C 73 % 0 lf 1003,5 hPa 0,0 l/m 0,53 h 0,00 h 474 W/m 24,7 km/h (4 Bft) 96,79 %
10.09.2017 14:00 18,9 C 23,9 C 19,0 C 69 % 0 lf 1003,1 hPa 0,0 l/m 0,70 h 0,00 h 538 W/m 25,0 km/h (4 Bft) 97,29 %
10.09.2017 15:00 19,1 C 23,4 C 19,0 C 67 % 0 lf 1002,7 hPa 0,0 l/m 0,77 h 0,00 h 540 W/m 26,6 km/h (4 Bft) 95,23 %
10.09.2017 16:00 18,4 C 19,2 C 18,1 C 68 % 0 lf 1002,3 hPa 0,0 l/m 0,20 h 0,00 h 212 W/m 24,0 km/h (4 Bft) 97,86 %
10.09.2017 17:00 17,6 C 18,2 C 17,1 C 70 % 0 lf 1002,2 hPa 0,0 l/m 0,27 h 0,00 h 170 W/m 24,3 km/h (4 Bft) 96,01 %
10.09.2017 18:00 16,9 C 16,7 C 15,6 C 70 % 0 lf 1001,8 hPa 0,0 l/m 0,33 h 0,00 h 94 W/m 28,5 km/h (4 Bft) 96,20 %
10.09.2017 19:00 15,9 C 15,5 C 14,0 C 71 % 0 lf 1001,2 hPa 0,0 l/m 0,00 h 0,00 h 27 W/m 22,0 km/h (4 Bft) 97,08 %
10.09.2017 20:00 15,3 C 14,9 C 13,4 C 74 % 0 lf 1000,6 hPa 0,0 l/m 0,00 h 0,00 h 4 W/m 22,1 km/h (4 Bft) 95,37 %
10.09.2017 21:00 14,8 C 14,4 C 13,3 C 77 % 0 lf 1000,1 hPa 0,0 l/m 0,00 h 0,00 h 5 W/m 23,5 km/h (4 Bft) 96,72 %
10.09.2017 22:00 14,5 C 14,4 C 12,8 C 78 % 0 lf 999,3 hPa 0,0 l/m 0,00 h 0,00 h 4 W/m 22,3 km/h (4 Bft) 99,00 %
10.09.2017 23:00 14,4 C 14,1 C 12,7 C 80 % 1 lf 998,3 hPa 0,0 l/m 0,00 h 0,20 h 5 W/m 22,3 km/h (4 Bft) 94,45 %
Min-Datum _ 10.09.17 10.09.17 10.09.17 04.09.17 04.09.17 09.09.17 - - - - 04.09.17 08.09.17
_ Min-Zeit 07:16 06:10 03:48 13:46 00:00 07:58 - - - - 00:00 04:05
Minimum _ 10,1 C 9,4 C 8,3 C 52 % 0 lf 993,7 hPa - - - - 0,0 km/h (0 Bft) 4,39 %
Max-Datum _ 05.09.17 05.09.17 05.09.17 09.09.17 05.09.17 06.09.17 09.09.17 04.09.17 09.09.17 05.09.17 08.09.17 04.09.17
_ Max-Zeit 16:22 12:30 12:30 09:40 18:14 21:48 02:32 12:10 04:07 12:38 12:22 00:54
Maximum _ 25,7 C 33,9 C 32,2 C 99 % 15 lf 1017,4 hPa 4,2 l/m 0,07 h 0,08 h 924 W/m 52,3 km/h
SW (7 Bft)
100,00 %
Durchschnitt _ 16,3 C 16,9 C 15,4 C 83 % 4 lf 1008,8 hPa #26,6 l/m #28:09 h #24:20 h 154 W/m 15,2 km/h (3 Bft) 96,46 %
© 2017 W. Hausmann